sensor_id;sensor_type;location;lat;lon;timestamp;P1;durP1;ratioP1;P2;durP2;ratioP2
11893;SDS011;6006;49.696;8.662;2023-02-18T00:01:28;4.60;;;4.20;;
11893;SDS011;6006;49.696;8.662;2023-02-18T00:03:56;5.23;;;4.60;;
11893;SDS011;6006;49.696;8.662;2023-02-18T00:06:24;5.27;;;4.77;;
11893;SDS011;6006;49.696;8.662;2023-02-18T00:08:53;5.87;;;5.37;;
11893;SDS011;6006;49.696;8.662;2023-02-18T00:11:21;5.27;;;4.77;;
11893;SDS011;6006;49.696;8.662;2023-02-18T00:13:50;5.20;;;4.80;;
11893;SDS011;6006;49.696;8.662;2023-02-18T00:16:18;5.73;;;5.20;;
11893;SDS011;6006;49.696;8.662;2023-02-18T00:18:46;5.90;;;5.37;;
11893;SDS011;6006;49.696;8.662;2023-02-18T00:21:13;5.43;;;4.90;;
11893;SDS011;6006;49.696;8.662;2023-02-18T00:23:40;5.67;;;5.17;;
11893;SDS011;6006;49.696;8.662;2023-02-18T00:26:09;5.83;;;5.33;;
11893;SDS011;6006;49.696;8.662;2023-02-18T00:28:37;5.63;;;5.13;;
11893;SDS011;6006;49.696;8.662;2023-02-18T00:31:06;5.53;;;5.03;;
11893;SDS011;6006;49.696;8.662;2023-02-18T00:33:34;5.67;;;4.60;;
11893;SDS011;6006;49.696;8.662;2023-02-18T00:36:02;6.00;;;5.43;;
11893;SDS011;6006;49.696;8.662;2023-02-18T00:38:29;5.43;;;4.93;;
11893;SDS011;6006;49.696;8.662;2023-02-18T00:40:56;5.97;;;5.37;;
11893;SDS011;6006;49.696;8.662;2023-02-18T00:43:24;5.87;;;5.33;;
11893;SDS011;6006;49.696;8.662;2023-02-18T00:45:51;5.97;;;5.27;;
11893;SDS011;6006;49.696;8.662;2023-02-18T00:48:19;6.80;;;5.80;;
11893;SDS011;6006;49.696;8.662;2023-02-18T00:50:47;7.00;;;6.27;;
11893;SDS011;6006;49.696;8.662;2023-02-18T00:53:14;7.00;;;6.07;;
11893;SDS011;6006;49.696;8.662;2023-02-18T00:55:41;7.33;;;6.60;;
11893;SDS011;6006;49.696;8.662;2023-02-18T00:58:09;7.00;;;6.30;;
11893;SDS011;6006;49.696;8.662;2023-02-18T01:00:36;7.17;;;6.47;;
11893;SDS011;6006;49.696;8.662;2023-02-18T01:03:04;7.50;;;6.33;;
11893;SDS011;6006;49.696;8.662;2023-02-18T01:05:34;7.87;;;7.07;;
11893;SDS011;6006;49.696;8.662;2023-02-18T01:08:01;7.93;;;7.17;;
11893;SDS011;6006;49.696;8.662;2023-02-18T01:10:28;7.97;;;7.10;;
11893;SDS011;6006;49.696;8.662;2023-02-18T01:12:55;8.57;;;7.23;;
11893;SDS011;6006;49.696;8.662;2023-02-18T01:15:22;8.83;;;7.53;;
11893;SDS011;6006;49.696;8.662;2023-02-18T01:17:50;7.93;;;7.13;;
11893;SDS011;6006;49.696;8.662;2023-02-18T01:20:17;8.40;;;7.07;;
11893;SDS011;6006;49.696;8.662;2023-02-18T01:22:46;8.63;;;7.27;;
11893;SDS011;6006;49.696;8.662;2023-02-18T01:25:13;8.30;;;7.50;;
11893;SDS011;6006;49.696;8.662;2023-02-18T01:27:40;8.37;;;7.53;;
11893;SDS011;6006;49.696;8.662;2023-02-18T01:30:08;8.07;;;7.27;;
11893;SDS011;6006;49.696;8.662;2023-02-18T01:32:37;8.40;;;7.60;;
11893;SDS011;6006;49.696;8.662;2023-02-18T01:35:05;9.57;;;7.10;;
11893;SDS011;6006;49.696;8.662;2023-02-18T01:37:33;9.27;;;7.80;;
11893;SDS011;6006;49.696;8.662;2023-02-18T01:40:01;9.80;;;7.60;;
11893;SDS011;6006;49.696;8.662;2023-02-18T01:42:29;8.43;;;7.53;;
11893;SDS011;6006;49.696;8.662;2023-02-18T01:47:56;9.90;;;7.97;;
11893;SDS011;6006;49.696;8.662;2023-02-18T01:50:24;8.53;;;7.73;;
11893;SDS011;6006;49.696;8.662;2023-02-18T01:52:51;8.90;;;7.80;;
11893;SDS011;6006;49.696;8.662;2023-02-18T01:55:19;9.57;;;8.40;;
11893;SDS011;6006;49.696;8.662;2023-02-18T01:57:46;9.37;;;8.20;;
11893;SDS011;6006;49.696;8.662;2023-02-18T02:00:14;10.23;;;8.57;;
11893;SDS011;6006;49.696;8.662;2023-02-18T02:02:46;10.50;;;9.10;;
11893;SDS011;6006;49.696;8.662;2023-02-18T02:05:14;10.50;;;8.67;;
11893;SDS011;6006;49.696;8.662;2023-02-18T02:07:41;9.63;;;8.53;;
11893;SDS011;6006;49.696;8.662;2023-02-18T02:10:10;9.40;;;8.40;;
11893;SDS011;6006;49.696;8.662;2023-02-18T02:12:42;10.00;;;7.77;;
11893;SDS011;6006;49.696;8.662;2023-02-18T02:15:22;10.77;;;8.50;;
11893;SDS011;6006;49.696;8.662;2023-02-18T02:17:57;10.53;;;8.43;;
11893;SDS011;6006;49.696;8.662;2023-02-18T02:20:49;11.83;;;7.97;;
11893;SDS011;6006;49.696;8.662;2023-02-18T02:24:02;9.97;;;8.57;;
11893;SDS011;6006;49.696;8.662;2023-02-18T02:26:59;10.93;;;8.60;;
11893;SDS011;6006;49.696;8.662;2023-02-18T02:29:47;11.87;;;8.37;;
11893;SDS011;6006;49.696;8.662;2023-02-18T02:32:38;10.13;;;8.47;;
11893;SDS011;6006;49.696;8.662;2023-02-18T02:35:26;10.07;;;8.50;;
11893;SDS011;6006;49.696;8.662;2023-02-18T02:37:58;9.63;;;7.43;;
11893;SDS011;6006;49.696;8.662;2023-02-18T02:40:31;8.57;;;7.33;;
11893;SDS011;6006;49.696;8.662;2023-02-18T02:43:05;10.20;;;8.37;;
11893;SDS011;6006;49.696;8.662;2023-02-18T02:45:43;8.27;;;7.23;;
11893;SDS011;6006;49.696;8.662;2023-02-18T02:48:15;8.17;;;6.67;;
11893;SDS011;6006;49.696;8.662;2023-02-18T02:50:51;7.87;;;6.87;;
11893;SDS011;6006;49.696;8.662;2023-02-18T02:53:24;9.23;;;6.57;;
11893;SDS011;6006;49.696;8.662;2023-02-18T02:55:55;7.83;;;6.70;;
11893;SDS011;6006;49.696;8.662;2023-02-18T02:58:22;7.27;;;6.43;;
11893;SDS011;6006;49.696;8.662;2023-02-18T03:00:54;7.23;;;6.47;;
11893;SDS011;6006;49.696;8.662;2023-02-18T03:03:33;8.30;;;7.03;;
11893;SDS011;6006;49.696;8.662;2023-02-18T03:06:33;8.10;;;6.80;;
11893;SDS011;6006;49.696;8.662;2023-02-18T03:09:15;7.63;;;6.37;;
11893;SDS011;6006;49.696;8.662;2023-02-18T03:11:50;11.40;;;7.30;;
11893;SDS011;6006;49.696;8.662;2023-02-18T03:14:26;8.63;;;6.13;;
11893;SDS011;6006;49.696;8.662;2023-02-18T03:16:57;7.03;;;6.00;;
11893;SDS011;6006;49.696;8.662;2023-02-18T03:19:27;7.13;;;6.07;;
11893;SDS011;6006;49.696;8.662;2023-02-18T03:21:59;6.63;;;5.57;;
11893;SDS011;6006;49.696;8.662;2023-02-18T03:24:32;6.50;;;5.50;;
11893;SDS011;6006;49.696;8.662;2023-02-18T03:27:04;5.30;;;4.80;;
11893;SDS011;6006;49.696;8.662;2023-02-18T03:29:35;5.80;;;5.03;;
11893;SDS011;6006;49.696;8.662;2023-02-18T03:32:04;5.63;;;5.03;;
11893;SDS011;6006;49.696;8.662;2023-02-18T03:34:34;4.83;;;4.33;;
11893;SDS011;6006;49.696;8.662;2023-02-18T03:37:05;5.47;;;4.90;;
11893;SDS011;6006;49.696;8.662;2023-02-18T03:39:35;5.30;;;4.17;;
11893;SDS011;6006;49.696;8.662;2023-02-18T03:42:04;4.93;;;4.43;;
11893;SDS011;6006;49.696;8.662;2023-02-18T03:44:31;4.63;;;4.23;;
11893;SDS011;6006;49.696;8.662;2023-02-18T03:46:58;5.20;;;4.40;;
11893;SDS011;6006;49.696;8.662;2023-02-18T03:49:25;4.97;;;4.57;;
11893;SDS011;6006;49.696;8.662;2023-02-18T03:51:52;5.40;;;4.83;;
11893;SDS011;6006;49.696;8.662;2023-02-18T03:54:20;5.43;;;4.80;;
11893;SDS011;6006;49.696;8.662;2023-02-18T03:56:47;4.77;;;4.30;;
11893;SDS011;6006;49.696;8.662;2023-02-18T03:59:14;5.77;;;4.60;;
11893;SDS011;6006;49.696;8.662;2023-02-18T04:01:40;4.40;;;4.00;;
11893;SDS011;6006;49.696;8.662;2023-02-18T04:04:07;6.17;;;4.33;;
11893;SDS011;6006;49.696;8.662;2023-02-18T04:06:34;4.40;;;4.00;;
11893;SDS011;6006;49.696;8.662;2023-02-18T04:09:01;6.07;;;4.63;;
11893;SDS011;6006;49.696;8.662;2023-02-18T04:11:34;5.57;;;4.50;;
11893;SDS011;6006;49.696;8.662;2023-02-18T04:14:01;4.20;;;3.80;;
11893;SDS011;6006;49.696;8.662;2023-02-18T04:16:29;4.23;;;3.90;;
11893;SDS011;6006;49.696;8.662;2023-02-18T04:18:55;4.97;;;4.10;;
11893;SDS011;6006;49.696;8.662;2023-02-18T04:21:22;4.83;;;3.70;;
11893;SDS011;6006;49.696;8.662;2023-02-18T04:23:49;3.97;;;3.40;;
11893;SDS011;6006;49.696;8.662;2023-02-18T04:26:16;4.57;;;4.17;;
11893;SDS011;6006;49.696;8.662;2023-02-18T04:28:44;4.27;;;3.87;;
11893;SDS011;6006;49.696;8.662;2023-02-18T04:31:11;4.90;;;3.97;;
11893;SDS011;6006;49.696;8.662;2023-02-18T04:33:39;4.90;;;4.20;;
11893;SDS011;6006;49.696;8.662;2023-02-18T04:36:06;4.20;;;3.80;;
11893;SDS011;6006;49.696;8.662;2023-02-18T04:38:33;4.50;;;3.40;;
11893;SDS011;6006;49.696;8.662;2023-02-18T04:41:00;4.70;;;4.30;;
11893;SDS011;6006;49.696;8.662;2023-02-18T04:43:27;4.30;;;3.90;;
11893;SDS011;6006;49.696;8.662;2023-02-18T04:45:55;4.47;;;4.07;;
11893;SDS011;6006;49.696;8.662;2023-02-18T04:48:22;6.60;;;4.47;;
11893;SDS011;6006;49.696;8.662;2023-02-18T04:50:49;5.10;;;4.60;;
11893;SDS011;6006;49.696;8.662;2023-02-18T04:53:16;5.73;;;4.77;;
11893;SDS011;6006;49.696;8.662;2023-02-18T04:55:45;6.33;;;4.80;;
11893;SDS011;6006;49.696;8.662;2023-02-18T04:58:15;5.00;;;4.57;;
11893;SDS011;6006;49.696;8.662;2023-02-18T05:00:41;5.03;;;4.63;;
11893;SDS011;6006;49.696;8.662;2023-02-18T05:03:10;5.70;;;4.93;;
11893;SDS011;6006;49.696;8.662;2023-02-18T05:05:37;5.67;;;5.17;;
11893;SDS011;6006;49.696;8.662;2023-02-18T05:08:05;5.40;;;4.90;;
11893;SDS011;6006;49.696;8.662;2023-02-18T05:10:32;5.37;;;4.73;;
11893;SDS011;6006;49.696;8.662;2023-02-18T05:13:00;5.47;;;4.97;;
11893;SDS011;6006;49.696;8.662;2023-02-18T05:15:26;6.40;;;5.07;;
11893;SDS011;6006;49.696;8.662;2023-02-18T05:17:53;5.60;;;5.00;;
11893;SDS011;6006;49.696;8.662;2023-02-18T05:20:22;5.43;;;4.93;;
11893;SDS011;6006;49.696;8.662;2023-02-18T05:22:48;5.33;;;4.83;;
11893;SDS011;6006;49.696;8.662;2023-02-18T05:25:15;5.53;;;4.80;;
11893;SDS011;6006;49.696;8.662;2023-02-18T05:27:42;5.47;;;4.97;;
11893;SDS011;6006;49.696;8.662;2023-02-18T05:30:09;5.67;;;5.13;;
11893;SDS011;6006;49.696;8.662;2023-02-18T05:32:37;5.97;;;5.30;;
11893;SDS011;6006;49.696;8.662;2023-02-18T05:35:04;6.30;;;5.80;;
11893;SDS011;6006;49.696;8.662;2023-02-18T05:37:33;6.07;;;5.47;;
11893;SDS011;6006;49.696;8.662;2023-02-18T05:40:00;7.80;;;6.00;;
11893;SDS011;6006;49.696;8.662;2023-02-18T05:42:27;6.50;;;5.87;;
11893;SDS011;6006;49.696;8.662;2023-02-18T05:44:53;6.53;;;5.93;;
11893;SDS011;6006;49.696;8.662;2023-02-18T05:47:19;8.07;;;5.30;;
11893;SDS011;6006;49.696;8.662;2023-02-18T05:49:46;5.87;;;5.37;;
11893;SDS011;6006;49.696;8.662;2023-02-18T05:52:14;8.17;;;6.43;;
11893;SDS011;6006;49.696;8.662;2023-02-18T05:54:43;5.53;;;4.90;;
11893;SDS011;6006;49.696;8.662;2023-02-18T05:57:10;6.47;;;5.00;;
11893;SDS011;6006;49.696;8.662;2023-02-18T05:59:39;4.63;;;4.23;;
11893;SDS011;6006;49.696;8.662;2023-02-18T06:02:06;4.83;;;4.43;;
11893;SDS011;6006;49.696;8.662;2023-02-18T06:04:33;5.77;;;4.90;;
11893;SDS011;6006;49.696;8.662;2023-02-18T06:07:00;6.60;;;5.10;;
11893;SDS011;6006;49.696;8.662;2023-02-18T06:09:27;5.63;;;5.10;;
11893;SDS011;6006;49.696;8.662;2023-02-18T06:11:55;4.90;;;4.50;;
11893;SDS011;6006;49.696;8.662;2023-02-18T06:14:22;4.90;;;4.50;;
11893;SDS011;6006;49.696;8.662;2023-02-18T06:16:49;5.23;;;4.73;;
11893;SDS011;6006;49.696;8.662;2023-02-18T06:19:16;5.40;;;4.90;;
11893;SDS011;6006;49.696;8.662;2023-02-18T06:21:43;5.47;;;4.97;;
11893;SDS011;6006;49.696;8.662;2023-02-18T06:24:09;5.13;;;4.73;;
11893;SDS011;6006;49.696;8.662;2023-02-18T06:26:36;5.00;;;4.50;;
11893;SDS011;6006;49.696;8.662;2023-02-18T06:29:05;5.33;;;4.83;;
11893;SDS011;6006;49.696;8.662;2023-02-18T06:31:31;5.10;;;4.60;;
11893;SDS011;6006;49.696;8.662;2023-02-18T06:33:58;5.33;;;4.83;;
11893;SDS011;6006;49.696;8.662;2023-02-18T06:36:25;6.03;;;5.07;;
11893;SDS011;6006;49.696;8.662;2023-02-18T06:38:52;5.93;;;5.43;;
11893;SDS011;6006;49.696;8.662;2023-02-18T06:41:21;6.53;;;5.47;;
11893;SDS011;6006;49.696;8.662;2023-02-18T06:43:49;5.93;;;5.43;;
11893;SDS011;6006;49.696;8.662;2023-02-18T06:46:17;6.40;;;5.80;;
11893;SDS011;6006;49.696;8.662;2023-02-18T06:48:44;5.53;;;4.87;;
11893;SDS011;6006;49.696;8.662;2023-02-18T06:51:11;6.07;;;5.33;;
11893;SDS011;6006;49.696;8.662;2023-02-18T06:53:38;5.37;;;4.87;;
11893;SDS011;6006;49.696;8.662;2023-02-18T06:56:05;5.70;;;5.20;;
11893;SDS011;6006;49.696;8.662;2023-02-18T06:58:32;5.87;;;5.37;;
11893;SDS011;6006;49.696;8.662;2023-02-18T07:00:59;5.03;;;4.63;;
11893;SDS011;6006;49.696;8.662;2023-02-18T07:03:27;6.87;;;5.27;;
11893;SDS011;6006;49.696;8.662;2023-02-18T07:05:54;5.87;;;5.27;;
11893;SDS011;6006;49.696;8.662;2023-02-18T07:08:21;6.40;;;5.57;;
11893;SDS011;6006;49.696;8.662;2023-02-18T07:10:48;6.43;;;5.50;;
11893;SDS011;6006;49.696;8.662;2023-02-18T07:13:15;5.97;;;5.37;;
11893;SDS011;6006;49.696;8.662;2023-02-18T07:15:42;6.87;;;6.17;;
11893;SDS011;6006;49.696;8.662;2023-02-18T07:18:09;6.77;;;6.17;;
11893;SDS011;6006;49.696;8.662;2023-02-18T07:20:37;8.67;;;6.47;;
11893;SDS011;6006;49.696;8.662;2023-02-18T07:23:04;6.57;;;5.97;;
11893;SDS011;6006;49.696;8.662;2023-02-18T07:25:31;6.50;;;5.80;;
11893;SDS011;6006;49.696;8.662;2023-02-18T07:27:58;6.33;;;5.70;;
11893;SDS011;6006;49.696;8.662;2023-02-18T07:30:25;7.53;;;6.07;;
11893;SDS011;6006;49.696;8.662;2023-02-18T07:32:51;6.37;;;5.77;;
11893;SDS011;6006;49.696;8.662;2023-02-18T07:35:18;6.23;;;5.33;;
11893;SDS011;6006;49.696;8.662;2023-02-18T07:37:49;6.10;;;5.53;;
11893;SDS011;6006;49.696;8.662;2023-02-18T07:40:17;6.40;;;5.80;;
11893;SDS011;6006;49.696;8.662;2023-02-18T07:42:45;6.17;;;5.57;;
11893;SDS011;6006;49.696;8.662;2023-02-18T07:45:12;5.80;;;5.27;;
11893;SDS011;6006;49.696;8.662;2023-02-18T07:47:40;5.43;;;4.93;;
11893;SDS011;6006;49.696;8.662;2023-02-18T07:50:07;5.30;;;4.80;;
11893;SDS011;6006;49.696;8.662;2023-02-18T07:52:35;5.93;;;5.20;;
11893;SDS011;6006;49.696;8.662;2023-02-18T07:55:03;5.73;;;4.80;;
11893;SDS011;6006;49.696;8.662;2023-02-18T07:57:30;5.53;;;4.50;;
11893;SDS011;6006;49.696;8.662;2023-02-18T07:59:57;6.17;;;5.27;;
11893;SDS011;6006;49.696;8.662;2023-02-18T08:02:24;5.77;;;5.20;;
11893;SDS011;6006;49.696;8.662;2023-02-18T08:04:51;6.70;;;5.60;;
11893;SDS011;6006;49.696;8.662;2023-02-18T08:07:18;5.97;;;5.13;;
11893;SDS011;6006;49.696;8.662;2023-02-18T08:09:46;7.70;;;5.87;;
11893;SDS011;6006;49.696;8.662;2023-02-18T08:12:16;6.60;;;5.73;;
11893;SDS011;6006;49.696;8.662;2023-02-18T08:14:42;7.70;;;6.03;;
11893;SDS011;6006;49.696;8.662;2023-02-18T08:17:09;6.63;;;5.90;;
11893;SDS011;6006;49.696;8.662;2023-02-18T08:19:36;6.53;;;5.77;;
11893;SDS011;6006;49.696;8.662;2023-02-18T08:22:03;5.80;;;5.20;;
11893;SDS011;6006;49.696;8.662;2023-02-18T08:24:30;6.70;;;6.00;;
11893;SDS011;6006;49.696;8.662;2023-02-18T08:26:57;6.00;;;5.40;;
11893;SDS011;6006;49.696;8.662;2023-02-18T08:29:25;6.37;;;5.60;;
11893;SDS011;6006;49.696;8.662;2023-02-18T08:31:52;7.53;;;5.87;;
11893;SDS011;6006;49.696;8.662;2023-02-18T08:34:21;6.20;;;5.60;;
11893;SDS011;6006;49.696;8.662;2023-02-18T08:36:48;6.60;;;5.83;;
11893;SDS011;6006;49.696;8.662;2023-02-18T08:39:14;7.23;;;6.50;;
11893;SDS011;6006;49.696;8.662;2023-02-18T08:41:41;7.07;;;6.00;;
11893;SDS011;6006;49.696;8.662;2023-02-18T08:44:08;6.87;;;6.17;;
11893;SDS011;6006;49.696;8.662;2023-02-18T08:46:37;6.73;;;6.00;;
11893;SDS011;6006;49.696;8.662;2023-02-18T08:49:03;8.27;;;6.60;;
11893;SDS011;6006;49.696;8.662;2023-02-18T08:51:30;6.10;;;5.43;;
11893;SDS011;6006;49.696;8.662;2023-02-18T08:53:57;7.37;;;6.43;;
11893;SDS011;6006;49.696;8.662;2023-02-18T08:56:24;6.77;;;6.00;;
11893;SDS011;6006;49.696;8.662;2023-02-18T08:58:51;6.17;;;5.57;;
11893;SDS011;6006;49.696;8.662;2023-02-18T09:01:18;6.53;;;5.83;;
11893;SDS011;6006;49.696;8.662;2023-02-18T09:03:47;6.83;;;5.77;;
11893;SDS011;6006;49.696;8.662;2023-02-18T09:06:13;6.20;;;5.57;;
11893;SDS011;6006;49.696;8.662;2023-02-18T09:08:40;5.80;;;5.20;;
11893;SDS011;6006;49.696;8.662;2023-02-18T09:11:08;6.00;;;5.40;;
11893;SDS011;6006;49.696;8.662;2023-02-18T09:13:36;6.23;;;5.63;;
11893;SDS011;6006;49.696;8.662;2023-02-18T09:16:04;6.80;;;5.33;;
11893;SDS011;6006;49.696;8.662;2023-02-18T09:18:33;8.43;;;6.20;;
11893;SDS011;6006;49.696;8.662;2023-02-18T09:21:03;7.17;;;6.10;;
11893;SDS011;6006;49.696;8.662;2023-02-18T09:23:33;6.13;;;5.60;;
11893;SDS011;6006;49.696;8.662;2023-02-18T09:26:02;6.60;;;5.90;;
11893;SDS011;6006;49.696;8.662;2023-02-18T09:28:30;5.83;;;5.30;;
11893;SDS011;6006;49.696;8.662;2023-02-18T09:30:57;6.27;;;5.70;;
11893;SDS011;6006;49.696;8.662;2023-02-18T09:33:28;5.93;;;5.30;;
11893;SDS011;6006;49.696;8.662;2023-02-18T09:35:55;5.77;;;5.27;;
11893;SDS011;6006;49.696;8.662;2023-02-18T09:38:23;6.67;;;5.13;;
11893;SDS011;6006;49.696;8.662;2023-02-18T09:40:51;5.20;;;4.70;;
11893;SDS011;6006;49.696;8.662;2023-02-18T09:43:21;7.10;;;4.90;;
11893;SDS011;6006;49.696;8.662;2023-02-18T09:45:54;5.13;;;4.73;;
11893;SDS011;6006;49.696;8.662;2023-02-18T09:48:24;5.60;;;5.07;;
11893;SDS011;6006;49.696;8.662;2023-02-18T09:50:55;5.33;;;4.83;;
11893;SDS011;6006;49.696;8.662;2023-02-18T09:53:24;6.47;;;5.80;;
11893;SDS011;6006;49.696;8.662;2023-02-18T09:55:52;6.00;;;5.40;;
11893;SDS011;6006;49.696;8.662;2023-02-18T09:58:21;5.50;;;5.10;;
11893;SDS011;6006;49.696;8.662;2023-02-18T10:00:51;5.40;;;4.90;;
11893;SDS011;6006;49.696;8.662;2023-02-18T10:03:23;6.00;;;5.40;;
11893;SDS011;6006;49.696;8.662;2023-02-18T10:05:54;5.80;;;5.30;;
11893;SDS011;6006;49.696;8.662;2023-02-18T10:08:25;6.40;;;5.17;;
11893;SDS011;6006;49.696;8.662;2023-02-18T10:10:54;6.30;;;5.70;;
11893;SDS011;6006;49.696;8.662;2023-02-18T10:13:21;6.27;;;5.67;;
11893;SDS011;6006;49.696;8.662;2023-02-18T10:15:50;5.93;;;5.37;;
11893;SDS011;6006;49.696;8.662;2023-02-18T10:18:25;6.77;;;5.73;;
11893;SDS011;6006;49.696;8.662;2023-02-18T10:20:56;6.07;;;5.57;;
11893;SDS011;6006;49.696;8.662;2023-02-18T10:23:30;5.73;;;5.23;;
11893;SDS011;6006;49.696;8.662;2023-02-18T10:26:01;5.50;;;5.10;;
11893;SDS011;6006;49.696;8.662;2023-02-18T10:28:30;5.50;;;5.03;;
11893;SDS011;6006;49.696;8.662;2023-02-18T10:30:58;5.90;;;5.40;;
11893;SDS011;6006;49.696;8.662;2023-02-18T10:33:32;6.33;;;4.90;;
11893;SDS011;6006;49.696;8.662;2023-02-18T10:36:11;4.73;;;4.27;;
11893;SDS011;6006;49.696;8.662;2023-02-18T10:41:47;4.43;;;4.03;;
11893;SDS011;6006;49.696;8.662;2023-02-18T10:44:22;4.30;;;3.90;;
11893;SDS011;6006;49.696;8.662;2023-02-18T10:46:57;6.03;;;4.03;;
11893;SDS011;6006;49.696;8.662;2023-02-18T10:49:40;4.53;;;3.83;;
11893;SDS011;6006;49.696;8.662;2023-02-18T10:52:25;4.00;;;3.63;;
11893;SDS011;6006;49.696;8.662;2023-02-18T10:54:59;3.90;;;3.53;;
11893;SDS011;6006;49.696;8.662;2023-02-18T10:57:28;5.00;;;3.63;;
11893;SDS011;6006;49.696;8.662;2023-02-18T10:59:57;4.57;;;4.03;;
11893;SDS011;6006;49.696;8.662;2023-02-18T11:02:27;4.27;;;3.87;;
11893;SDS011;6006;49.696;8.662;2023-02-18T11:04:57;4.07;;;3.67;;
11893;SDS011;6006;49.696;8.662;2023-02-18T11:07:31;4.23;;;3.63;;
11893;SDS011;6006;49.696;8.662;2023-02-18T11:10:06;3.93;;;3.53;;
11893;SDS011;6006;49.696;8.662;2023-02-18T11:12:42;5.40;;;3.37;;
11893;SDS011;6006;49.696;8.662;2023-02-18T11:15:16;5.17;;;3.57;;
11893;SDS011;6006;49.696;8.662;2023-02-18T11:17:45;3.07;;;2.77;;
11893;SDS011;6006;49.696;8.662;2023-02-18T11:20:21;6.73;;;2.63;;
11893;SDS011;6006;49.696;8.662;2023-02-18T11:22:58;3.10;;;2.77;;
11893;SDS011;6006;49.696;8.662;2023-02-18T11:25:41;4.13;;;2.90;;
11893;SDS011;6006;49.696;8.662;2023-02-18T11:28:27;2.70;;;2.50;;
11893;SDS011;6006;49.696;8.662;2023-02-18T11:30:59;2.57;;;2.37;;
11893;SDS011;6006;49.696;8.662;2023-02-18T11:33:30;2.47;;;2.20;;
11893;SDS011;6006;49.696;8.662;2023-02-18T11:36:02;3.00;;;2.60;;
11893;SDS011;6006;49.696;8.662;2023-02-18T11:38:33;2.90;;;2.70;;
11893;SDS011;6006;49.696;8.662;2023-02-18T11:41:05;2.67;;;2.10;;
11893;SDS011;6006;49.696;8.662;2023-02-18T11:43:35;2.83;;;2.30;;
11893;SDS011;6006;49.696;8.662;2023-02-18T11:46:09;2.50;;;2.30;;
11893;SDS011;6006;49.696;8.662;2023-02-18T11:48:38;2.60;;;2.40;;
11893;SDS011;6006;49.696;8.662;2023-02-18T11:51:07;2.77;;;2.57;;
11893;SDS011;6006;49.696;8.662;2023-02-18T11:53:52;2.60;;;2.40;;
11893;SDS011;6006;49.696;8.662;2023-02-18T11:56:21;2.20;;;2.10;;
11893;SDS011;6006;49.696;8.662;2023-02-18T11:58:48;2.70;;;2.50;;
11893;SDS011;6006;49.696;8.662;2023-02-18T12:01:19;2.80;;;2.53;;
11893;SDS011;6006;49.696;8.662;2023-02-18T12:03:51;3.30;;;2.87;;
11893;SDS011;6006;49.696;8.662;2023-02-18T12:06:21;2.60;;;2.37;;
11893;SDS011;6006;49.696;8.662;2023-02-18T12:08:54;3.80;;;2.50;;
11893;SDS011;6006;49.696;8.662;2023-02-18T12:11:28;2.50;;;2.10;;
11893;SDS011;6006;49.696;8.662;2023-02-18T12:14:01;2.40;;;2.20;;
11893;SDS011;6006;49.696;8.662;2023-02-18T12:16:31;2.57;;;2.10;;
11893;SDS011;6006;49.696;8.662;2023-02-18T12:19:06;2.43;;;2.23;;
11893;SDS011;6006;49.696;8.662;2023-02-18T12:21:47;2.77;;;1.97;;
11893;SDS011;6006;49.696;8.662;2023-02-18T12:24:28;2.87;;;2.10;;
11893;SDS011;6006;49.696;8.662;2023-02-18T12:27:07;2.60;;;1.90;;
11893;SDS011;6006;49.696;8.662;2023-02-18T12:29:48;3.23;;;2.20;;
11893;SDS011;6006;49.696;8.662;2023-02-18T12:32:47;2.40;;;2.20;;
11893;SDS011;6006;49.696;8.662;2023-02-18T12:35:21;3.03;;;2.37;;
11893;SDS011;6006;49.696;8.662;2023-02-18T12:38:05;2.70;;;2.43;;
11893;SDS011;6006;49.696;8.662;2023-02-18T12:40:57;2.57;;;2.37;;
11893;SDS011;6006;49.696;8.662;2023-02-18T12:43:38;2.07;;;1.93;;
11893;SDS011;6006;49.696;8.662;2023-02-18T12:46:18;3.83;;;2.20;;
11893;SDS011;6006;49.696;8.662;2023-02-18T12:48:56;3.07;;;2.00;;
11893;SDS011;6006;49.696;8.662;2023-02-18T12:51:37;2.30;;;2.10;;
11893;SDS011;6006;49.696;8.662;2023-02-18T12:54:25;2.20;;;2.00;;
11893;SDS011;6006;49.696;8.662;2023-02-18T12:57:12;2.10;;;1.90;;
11893;SDS011;6006;49.696;8.662;2023-02-18T13:03:11;3.23;;;2.17;;
11893;SDS011;6006;49.696;8.662;2023-02-18T13:06:07;2.50;;;2.30;;
11893;SDS011;6006;49.696;8.662;2023-02-18T13:08:46;2.90;;;2.70;;
11893;SDS011;6006;49.696;8.662;2023-02-18T13:11:25;3.53;;;2.23;;
11893;SDS011;6006;49.696;8.662;2023-02-18T13:14:00;2.30;;;2.10;;
11893;SDS011;6006;49.696;8.662;2023-02-18T13:16:35;6.70;;;6.07;;
11893;SDS011;6006;49.696;8.662;2023-02-18T13:19:06;3.50;;;2.60;;
11893;SDS011;6006;49.696;8.662;2023-02-18T13:21:42;2.90;;;2.70;;
11893;SDS011;6006;49.696;8.662;2023-02-18T13:24:11;3.80;;;2.30;;
11893;SDS011;6006;49.696;8.662;2023-02-18T13:26:42;2.50;;;2.30;;
11893;SDS011;6006;49.696;8.662;2023-02-18T13:29:17;2.50;;;2.40;;
11893;SDS011;6006;49.696;8.662;2023-02-18T13:31:54;2.87;;;2.10;;
11893;SDS011;6006;49.696;8.662;2023-02-18T13:34:33;4.47;;;2.60;;
11893;SDS011;6006;49.696;8.662;2023-02-18T13:37:09;3.13;;;2.83;;
11893;SDS011;6006;49.696;8.662;2023-02-18T13:39:44;3.17;;;2.87;;
11893;SDS011;6006;49.696;8.662;2023-02-18T13:45:21;4.30;;;2.40;;
11893;SDS011;6006;49.696;8.662;2023-02-18T13:47:51;3.10;;;2.80;;
11893;SDS011;6006;49.696;8.662;2023-02-18T13:53:14;2.30;;;2.10;;
11893;SDS011;6006;49.696;8.662;2023-02-18T13:58:31;2.43;;;2.23;;
11893;SDS011;6006;49.696;8.662;2023-02-18T14:01:10;3.23;;;2.93;;
11893;SDS011;6006;49.696;8.662;2023-02-18T14:03:52;2.53;;;2.33;;
11893;SDS011;6006;49.696;8.662;2023-02-18T14:06:27;3.47;;;2.53;;
11893;SDS011;6006;49.696;8.662;2023-02-18T14:09:03;3.13;;;2.17;;
11893;SDS011;6006;49.696;8.662;2023-02-18T14:11:52;3.27;;;2.70;;
11893;SDS011;6006;49.696;8.662;2023-02-18T14:26:09;5.53;;;2.57;;
11893;SDS011;6006;49.696;8.662;2023-02-18T14:28:48;2.47;;;2.30;;
11893;SDS011;6006;49.696;8.662;2023-02-18T14:31:27;4.03;;;2.37;;
11893;SDS011;6006;49.696;8.662;2023-02-18T14:34:05;2.50;;;2.30;;
11893;SDS011;6006;49.696;8.662;2023-02-18T14:36:56;3.10;;;2.80;;
11893;SDS011;6006;49.696;8.662;2023-02-18T14:39:33;3.67;;;2.10;;
11893;SDS011;6006;49.696;8.662;2023-02-18T14:42:12;3.13;;;2.10;;
11893;SDS011;6006;49.696;8.662;2023-02-18T14:44:53;2.23;;;2.03;;
11893;SDS011;6006;49.696;8.662;2023-02-18T14:47:44;2.10;;;1.90;;
11893;SDS011;6006;49.696;8.662;2023-02-18T14:50:29;2.50;;;2.30;;
11893;SDS011;6006;49.696;8.662;2023-02-18T14:53:02;2.47;;;2.03;;
11893;SDS011;6006;49.696;8.662;2023-02-18T14:55:32;1.80;;;1.70;;
11893;SDS011;6006;49.696;8.662;2023-02-18T14:58:02;2.33;;;2.13;;
11893;SDS011;6006;49.696;8.662;2023-02-18T15:00:33;2.60;;;2.23;;
11893;SDS011;6006;49.696;8.662;2023-02-18T15:03:08;1.83;;;1.73;;
11893;SDS011;6006;49.696;8.662;2023-02-18T15:05:38;1.90;;;1.73;;
11893;SDS011;6006;49.696;8.662;2023-02-18T15:08:11;1.53;;;1.43;;
11893;SDS011;6006;49.696;8.662;2023-02-18T15:10:41;1.90;;;1.70;;
11893;SDS011;6006;49.696;8.662;2023-02-18T15:13:13;3.23;;;1.80;;
11893;SDS011;6006;49.696;8.662;2023-02-18T15:15:44;2.30;;;1.93;;
11893;SDS011;6006;49.696;8.662;2023-02-18T15:18:17;2.83;;;1.73;;
11893;SDS011;6006;49.696;8.662;2023-02-18T15:20:50;2.33;;;1.40;;
11893;SDS011;6006;49.696;8.662;2023-02-18T15:23:18;2.60;;;2.40;;
11893;SDS011;6006;49.696;8.662;2023-02-18T15:25:46;2.87;;;1.90;;
11893;SDS011;6006;49.696;8.662;2023-02-18T15:28:22;2.30;;;2.10;;
11893;SDS011;6006;49.696;8.662;2023-02-18T15:30:50;2.13;;;1.90;;
11893;SDS011;6006;49.696;8.662;2023-02-18T15:33:18;2.60;;;2.00;;
11893;SDS011;6006;49.696;8.662;2023-02-18T15:35:46;1.80;;;1.70;;
11893;SDS011;6006;49.696;8.662;2023-02-18T15:38:14;2.23;;;2.10;;
11893;SDS011;6006;49.696;8.662;2023-02-18T15:40:43;2.80;;;1.90;;
11893;SDS011;6006;49.696;8.662;2023-02-18T15:43:15;2.53;;;2.00;;
11893;SDS011;6006;49.696;8.662;2023-02-18T15:45:46;3.90;;;2.83;;
11893;SDS011;6006;49.696;8.662;2023-02-18T15:48:19;1.83;;;1.50;;
11893;SDS011;6006;49.696;8.662;2023-02-18T15:50:50;2.10;;;1.90;;
11893;SDS011;6006;49.696;8.662;2023-02-18T15:53:19;1.90;;;1.80;;